createdAt,value
2018-07-06T00:00:53.140Z,0
2018-07-06T00:01:58.548Z,0
2018-07-06T00:03:03.957Z,0
2018-07-06T00:04:09.369Z,0
2018-07-06T00:05:14.779Z,0
2018-07-06T00:06:20.187Z,0
2018-07-06T00:07:25.588Z,0
2018-07-06T00:08:31.981Z,0
2018-07-06T00:09:37.391Z,0
2018-07-06T00:10:42.797Z,0
2018-07-06T00:11:48.203Z,0
2018-07-06T00:12:53.617Z,0
2018-07-06T00:13:59.018Z,0
2018-07-06T00:15:04.463Z,0
2018-07-06T00:16:09.855Z,0
2018-07-06T00:17:15.266Z,0
2018-07-06T00:18:20.674Z,0
2018-07-06T00:19:26.098Z,0
2018-07-06T00:20:31.501Z,0
2018-07-06T00:21:36.908Z,0
2018-07-06T00:22:42.314Z,0
2018-07-06T00:23:47.717Z,0
2018-07-06T00:24:53.153Z,0
2018-07-06T00:25:58.561Z,0
2018-07-06T00:27:03.973Z,0
2018-07-06T00:28:09.383Z,0
2018-07-06T00:29:14.786Z,0
2018-07-06T00:30:20.201Z,0
2018-07-06T00:31:26.598Z,0
2018-07-06T00:32:32.004Z,0
2018-07-06T00:33:37.408Z,0
2018-07-06T00:34:42.827Z,0
2018-07-06T00:35:48.243Z,0
2018-07-06T00:36:53.648Z,0
2018-07-06T00:38:00.050Z,0
2018-07-06T00:39:05.453Z,0
2018-07-06T00:40:10.858Z,0
2018-07-06T00:41:17.265Z,0
2018-07-06T00:42:22.675Z,0
2018-07-06T00:43:28.080Z,0
2018-07-06T00:44:33.485Z,0
2018-07-06T00:45:38.911Z,0
2018-07-06T00:46:44.319Z,0
2018-07-06T00:47:49.723Z,0
2018-07-06T00:48:55.207Z,0
2018-07-06T00:50:01.522Z,0
2018-07-06T00:51:06.942Z,0
2018-07-06T00:52:12.347Z,0
2018-07-06T00:53:17.751Z,0
2018-07-06T00:54:23.156Z,0
2018-07-06T00:55:28.588Z,0
2018-07-06T00:56:33.993Z,0
2018-07-06T00:57:40.391Z,0
2018-07-06T00:58:45.797Z,0
2018-07-06T00:59:51.204Z,0
2018-07-06T01:00:56.629Z,0
2018-07-06T01:02:02.039Z,0
2018-07-06T01:03:07.449Z,0
2018-07-06T01:04:12.860Z,0
2018-07-06T01:05:18.263Z,0
2018-07-06T01:06:24.683Z,0
2018-07-06T01:07:30.090Z,0
2018-07-06T01:08:35.491Z,0
2018-07-06T01:09:40.899Z,0
2018-07-06T01:10:46.330Z,0
2018-07-06T01:11:51.738Z,0
2018-07-06T01:12:57.147Z,0
2018-07-06T01:14:02.555Z,0
2018-07-06T01:15:07.957Z,0
2018-07-06T01:16:13.374Z,0
2018-07-06T01:17:18.781Z,0
2018-07-06T01:18:24.189Z,0
2018-07-06T01:19:29.597Z,0
2018-07-06T01:20:35.003Z,0
2018-07-06T01:21:40.416Z,0
2018-07-06T01:22:45.823Z,0
2018-07-06T01:23:51.227Z,0
2018-07-06T01:24:56.627Z,0
2018-07-06T01:26:02.057Z,0
2018-07-06T01:27:07.466Z,0
2018-07-06T01:28:12.873Z,0
2018-07-06T01:29:18.275Z,0
2018-07-06T01:30:23.674Z,0
2018-07-06T01:31:29.092Z,0
2018-07-06T01:32:34.496Z,0
2018-07-06T01:33:39.899Z,0
2018-07-06T01:34:45.304Z,0
2018-07-06T01:35:50.713Z,0
2018-07-06T01:36:56.130Z,0
2018-07-06T01:38:01.537Z,0
2018-07-06T01:39:06.944Z,0
2018-07-06T01:40:12.356Z,0
2018-07-06T01:41:17.762Z,0
2018-07-06T01:42:23.182Z,0
2018-07-06T01:43:28.590Z,0
2018-07-06T01:44:33.996Z,0
2018-07-06T01:45:39.396Z,0
2018-07-06T01:46:44.814Z,0
2018-07-06T01:47:50.214Z,0
2018-07-06T01:48:55.615Z,0
2018-07-06T01:50:01.021Z,0
2018-07-06T01:51:06.427Z,0
2018-07-06T01:52:11.842Z,0
2018-07-06T01:53:17.250Z,0
2018-07-06T01:54:22.657Z,0
2018-07-06T01:55:28.061Z,0
2018-07-06T01:56:34.459Z,0
2018-07-06T01:57:39.882Z,0
2018-07-06T01:58:45.284Z,0
2018-07-06T01:59:50.691Z,0
2018-07-06T02:00:56.100Z,0
2018-07-06T02:02:01.532Z,0
2018-07-06T02:03:07.929Z,0
2018-07-06T02:04:13.331Z,0
2018-07-06T02:05:18.741Z,0
2018-07-06T02:06:24.149Z,0
2018-07-06T02:07:29.568Z,0
2018-07-06T02:08:34.972Z,0
2018-07-06T02:09:41.373Z,0
2018-07-06T02:10:46.780Z,0
2018-07-06T02:11:52.186Z,0
2018-07-06T02:12:58.592Z,0
2018-07-06T02:14:03.999Z,0
2018-07-06T02:15:10.392Z,0
2018-07-06T02:16:15.802Z,0
2018-07-06T02:17:21.207Z,0
2018-07-06T02:18:26.619Z,0
2018-07-06T02:19:32.023Z,0
2018-07-06T02:20:37.427Z,0
2018-07-06T02:21:42.834Z,0
2018-07-06T02:22:48.268Z,0
2018-07-06T02:23:53.674Z,0
2018-07-06T02:24:59.083Z,0
2018-07-06T02:26:04.493Z,0
2018-07-06T02:27:09.891Z,0
2018-07-06T02:28:15.306Z,0
2018-07-06T02:29:20.706Z,0
2018-07-06T02:30:26.110Z,0
2018-07-06T02:31:32.511Z,0
2018-07-06T02:32:37.918Z,0
2018-07-06T02:33:43.341Z,0
2018-07-06T02:34:48.754Z,0
2018-07-06T02:35:54.149Z,0
2018-07-06T02:36:59.556Z,0
2018-07-06T02:38:04.987Z,0
2018-07-06T02:39:10.392Z,0
2018-07-06T02:40:15.794Z,0
2018-07-06T02:41:21.198Z,0
2018-07-06T02:42:26.607Z,0
2018-07-06T02:43:32.018Z,0
2018-07-06T02:44:37.426Z,0
2018-07-06T02:45:42.833Z,0
2018-07-06T02:46:48.238Z,0
2018-07-06T02:47:53.642Z,0
2018-07-06T02:48:59.058Z,0
2018-07-06T02:50:04.465Z,0
2018-07-06T02:51:09.868Z,0
2018-07-06T02:52:15.276Z,0
2018-07-06T02:53:20.681Z,0
2018-07-06T02:54:26.094Z,0
2018-07-06T02:55:31.499Z,0
2018-07-06T02:56:36.931Z,0
2018-07-06T02:57:42.321Z,0
2018-07-06T02:58:47.728Z,0
2018-07-06T02:59:53.131Z,0
2018-07-06T03:00:58.547Z,0
2018-07-06T03:02:03.938Z,0
2018-07-06T03:03:09.370Z,0
2018-07-06T03:04:14.784Z,0
2018-07-06T03:05:20.195Z,0
2018-07-06T03:06:25.598Z,0
2018-07-06T03:07:31.001Z,0
2018-07-06T03:08:36.409Z,0
2018-07-06T03:09:41.825Z,0
2018-07-06T03:10:48.268Z,0
2018-07-06T03:11:53.678Z,0
2018-07-06T03:12:59.089Z,0
2018-07-06T03:14:04.503Z,0
2018-07-06T03:15:10.900Z,0
2018-07-06T03:16:17.287Z,0
2018-07-06T03:17:22.692Z,0
2018-07-06T03:18:28.095Z,0
2018-07-06T03:19:33.514Z,0
2018-07-06T03:20:38.923Z,0
2018-07-06T03:21:44.330Z,0
2018-07-06T03:22:49.732Z,0
2018-07-06T03:23:57.142Z,0
2018-07-06T03:25:02.549Z,0
2018-07-06T03:26:08.943Z,0
2018-07-06T03:27:14.353Z,0
2018-07-06T03:28:19.873Z,0
2018-07-06T03:29:25.173Z,0
2018-07-06T03:30:30.577Z,0
2018-07-06T03:31:35.987Z,0
2018-07-06T03:32:41.386Z,0
2018-07-06T03:33:46.792Z,0
2018-07-06T03:34:52.212Z,0
2018-07-06T03:35:57.614Z,0
2018-07-06T03:37:03.027Z,0
2018-07-06T03:38:09.413Z,0
2018-07-06T03:39:14.841Z,0
2018-07-06T03:40:20.242Z,0
2018-07-06T03:41:25.650Z,0
2018-07-06T03:42:31.053Z,0
2018-07-06T03:43:36.458Z,0
2018-07-06T03:44:41.879Z,0
2018-07-06T03:45:47.286Z,0
2018-07-06T03:46:52.696Z,0
2018-07-06T03:47:58.160Z,0
2018-07-06T03:49:03.511Z,0
2018-07-06T03:50:08.929Z,0
2018-07-06T03:51:15.359Z,0
2018-07-06T03:52:20.731Z,0
2018-07-06T03:53:26.131Z,0
2018-07-06T03:54:31.544Z,0
2018-07-06T03:55:36.949Z,0
2018-07-06T03:56:42.352Z,0
2018-07-06T03:57:47.759Z,0
2018-07-06T03:58:53.166Z,0
2018-07-06T03:59:58.581Z,0
2018-07-06T04:01:05.039Z,0
2018-07-06T04:02:11.378Z,0
2018-07-06T04:03:16.786Z,0
2018-07-06T04:04:22.194Z,0
2018-07-06T04:05:27.612Z,0
2018-07-06T04:06:33.022Z,0
2018-07-06T04:07:38.434Z,0
2018-07-06T04:08:43.839Z,0
2018-07-06T04:09:49.258Z,0
2018-07-06T04:10:54.668Z,0
2018-07-06T04:12:00.071Z,0
2018-07-06T04:13:05.478Z,5.625
2018-07-06T04:14:10.879Z,5.625
2018-07-06T04:15:16.299Z,5.625
2018-07-06T04:16:21.706Z,5.625
2018-07-06T04:17:27.114Z,0
2018-07-06T04:18:32.515Z,5.625
2018-07-06T04:19:37.923Z,5.625
2018-07-06T04:20:43.339Z,0
2018-07-06T04:21:48.748Z,0
2018-07-06T04:22:54.151Z,5.625
2018-07-06T04:23:59.560Z,5.625
2018-07-06T04:25:05.970Z,5.625
2018-07-06T04:26:11.378Z,5.625
2018-07-06T04:27:16.781Z,5.625
2018-07-06T04:28:22.186Z,5.625
2018-07-06T04:29:27.597Z,5.625
2018-07-06T04:30:33.017Z,5.625
2018-07-06T04:31:38.422Z,5.625
2018-07-06T04:32:43.825Z,5.625
2018-07-06T04:33:49.226Z,5.625
2018-07-06T04:34:54.628Z,5.625
2018-07-06T04:36:00.181Z,5.625
2018-07-06T04:37:05.614Z,5.625
2018-07-06T04:38:11.018Z,5.625
2018-07-06T04:39:16.430Z,5.625
2018-07-06T04:40:21.847Z,5.625
2018-07-06T04:41:27.254Z,5.625
2018-07-06T04:42:33.651Z,11.25
2018-07-06T04:43:39.053Z,11.25
2018-07-06T04:44:44.458Z,11.25
2018-07-06T04:45:49.875Z,5.625
2018-07-06T04:46:55.285Z,5.625
2018-07-06T04:48:00.688Z,11.25
2018-07-06T04:49:06.095Z,11.25
2018-07-06T04:50:11.502Z,16.875
2018-07-06T04:51:16.929Z,11.25
2018-07-06T04:52:22.329Z,11.25
2018-07-06T04:53:27.741Z,11.25
2018-07-06T04:54:33.146Z,16.875
2018-07-06T04:55:38.560Z,16.875
2018-07-06T04:56:43.970Z,22.5
2018-07-06T04:57:49.388Z,22.5
2018-07-06T04:58:54.786Z,22.5
2018-07-06T05:00:00.198Z,22.5
2018-07-06T05:01:05.614Z,22.5
2018-07-06T05:02:11.016Z,22.5
2018-07-06T05:03:16.419Z,22.5
2018-07-06T05:04:21.825Z,22.5
2018-07-06T05:05:27.258Z,22.5
2018-07-06T05:06:32.661Z,22.5
2018-07-06T05:07:38.117Z,28.125
2018-07-06T05:08:43.467Z,28.125
2018-07-06T05:09:48.874Z,28.125
2018-07-06T05:10:54.292Z,28.125
2018-07-06T05:11:59.695Z,33.75
2018-07-06T05:13:05.100Z,28.125
2018-07-06T05:14:10.507Z,28.125
2018-07-06T05:15:15.913Z,28.125
2018-07-06T05:16:22.315Z,28.125
2018-07-06T05:17:27.722Z,28.125
2018-07-06T05:18:33.128Z,28.125
2018-07-06T05:19:38.538Z,33.75
2018-07-06T05:20:43.966Z,33.75
2018-07-06T05:21:50.370Z,39.375
2018-07-06T05:22:55.777Z,39.375
2018-07-06T05:24:01.183Z,33.75
2018-07-06T05:25:06.591Z,33.75
2018-07-06T05:26:12.005Z,28.125
2018-07-06T05:27:17.415Z,33.75
2018-07-06T05:28:22.821Z,33.75
2018-07-06T05:29:28.224Z,33.75
2018-07-06T05:30:33.633Z,39.375
2018-07-06T05:31:39.051Z,39.375
2018-07-06T05:32:44.450Z,39.375
2018-07-06T05:33:49.855Z,39.375
2018-07-06T05:34:55.259Z,45
2018-07-06T05:36:00.669Z,45
2018-07-06T05:37:06.082Z,45
2018-07-06T05:38:12.482Z,45
2018-07-06T05:39:17.893Z,45
2018-07-06T05:40:23.305Z,45
2018-07-06T05:41:28.725Z,50.625
2018-07-06T05:42:34.131Z,50.625
2018-07-06T05:43:39.530Z,45
2018-07-06T05:44:44.935Z,45
2018-07-06T05:45:50.344Z,45
2018-07-06T05:46:55.795Z,45
2018-07-06T05:48:01.236Z,50.625
2018-07-06T05:49:06.615Z,50.625
2018-07-06T05:50:12.016Z,50.625
2018-07-06T05:51:17.452Z,45
2018-07-06T05:52:22.854Z,45
2018-07-06T05:53:28.266Z,50.625
2018-07-06T05:54:33.676Z,45
2018-07-06T05:55:39.087Z,50.625
2018-07-06T05:56:44.502Z,50.625
2018-07-06T05:57:49.911Z,50.625
2018-07-06T05:58:55.318Z,50.625
2018-07-06T06:00:00.726Z,50.625
2018-07-06T06:01:06.133Z,50.625
2018-07-06T06:02:11.547Z,50.625
2018-07-06T06:03:16.953Z,56.25
2018-07-06T06:04:22.358Z,50.625
2018-07-06T06:05:27.760Z,56.25
2018-07-06T06:06:33.200Z,56.25
2018-07-06T06:07:38.610Z,56.25
2018-07-06T06:08:45.004Z,56.25
2018-07-06T06:09:50.404Z,56.25
2018-07-06T06:10:55.809Z,56.25
2018-07-06T06:12:01.230Z,56.25
2018-07-06T06:13:06.639Z,56.25
2018-07-06T06:14:12.041Z,61.875
2018-07-06T06:15:17.446Z,61.875
2018-07-06T06:16:22.849Z,61.875
2018-07-06T06:17:28.265Z,67.5
2018-07-06T06:18:33.714Z,61.875
2018-07-06T06:19:39.079Z,56.25
2018-07-06T06:20:44.485Z,56.25
2018-07-06T06:21:49.894Z,56.25
2018-07-06T06:22:55.309Z,56.25
2018-07-06T06:24:00.712Z,61.875
2018-07-06T06:25:06.123Z,67.5
2018-07-06T06:26:11.521Z,73.125
2018-07-06T06:27:16.936Z,61.875
2018-07-06T06:28:23.328Z,50.625
2018-07-06T06:29:28.736Z,50.625
2018-07-06T06:30:34.143Z,56.25
2018-07-06T06:31:39.549Z,61.875
2018-07-06T06:32:44.973Z,73.125
2018-07-06T06:33:50.536Z,73.125
2018-07-06T06:34:55.791Z,73.125
2018-07-06T06:36:02.184Z,67.5
2018-07-06T06:37:07.595Z,73.125
2018-07-06T06:38:13.015Z,73.125
2018-07-06T06:39:18.415Z,73.125
2018-07-06T06:40:23.814Z,73.125
2018-07-06T06:41:29.216Z,73.125
2018-07-06T06:42:34.640Z,67.5
2018-07-06T06:43:40.050Z,78.75
2018-07-06T06:44:45.508Z,67.5
2018-07-06T06:45:50.860Z,61.875
2018-07-06T06:46:56.266Z,56.25
2018-07-06T06:48:01.691Z,56.25
2018-07-06T06:49:07.094Z,50.625
2018-07-06T06:50:12.499Z,50.625
2018-07-06T06:51:17.905Z,45
2018-07-06T06:52:23.314Z,39.375
2018-07-06T06:53:29.721Z,33.75
2018-07-06T06:54:35.123Z,33.75
2018-07-06T06:55:40.528Z,45
2018-07-06T06:56:45.935Z,45
2018-07-06T06:57:51.340Z,45
2018-07-06T06:58:56.816Z,50.625
2018-07-06T07:00:02.165Z,50.625
2018-07-06T07:01:07.604Z,33.75
2018-07-06T07:02:12.977Z,33.75
2018-07-06T07:03:18.388Z,33.75
2018-07-06T07:04:23.803Z,28.125
2018-07-06T07:05:29.211Z,22.5
2018-07-06T07:06:34.620Z,22.5
2018-07-06T07:07:40.059Z,28.125
2018-07-06T07:08:45.464Z,39.375
2018-07-06T07:09:50.880Z,45
2018-07-06T07:10:56.283Z,45
2018-07-06T07:12:01.681Z,50.625
2018-07-06T07:13:07.096Z,61.875
2018-07-06T07:14:12.555Z,73.125
2018-07-06T07:15:17.923Z,78.75
2018-07-06T07:16:23.332Z,84.375
2018-07-06T07:17:28.734Z,78.75
2018-07-06T07:18:34.132Z,61.875
2018-07-06T07:19:39.550Z,56.25
2018-07-06T07:20:44.952Z,73.125
2018-07-06T07:21:50.359Z,73.125
2018-07-06T07:22:55.764Z,67.5
2018-07-06T07:24:01.192Z,90
2018-07-06T07:25:06.608Z,95.625
2018-07-06T07:26:13.042Z,101.25
2018-07-06T07:27:19.446Z,95.625
2018-07-06T07:28:24.845Z,101.25
2018-07-06T07:29:31.252Z,101.25
2018-07-06T07:30:37.648Z,95.625
2018-07-06T07:31:43.059Z,90
2018-07-06T07:32:48.468Z,95.625
2018-07-06T07:33:53.872Z,90
2018-07-06T07:34:59.292Z,90
2018-07-06T07:36:04.702Z,95.625
2018-07-06T07:37:10.112Z,95.625
2018-07-06T07:38:15.521Z,95.625
2018-07-06T07:39:20.937Z,90
2018-07-06T07:40:26.374Z,101.25
2018-07-06T07:41:31.790Z,101.25
2018-07-06T07:42:38.189Z,84.375
2018-07-06T07:43:43.598Z,73.125
2018-07-06T07:44:49.014Z,73.125
2018-07-06T07:45:54.417Z,78.75
2018-07-06T07:47:00.813Z,101.25
2018-07-06T07:48:06.217Z,106.875
2018-07-06T07:49:11.620Z,101.25
2018-07-06T07:50:17.035Z,106.875
2018-07-06T07:51:22.446Z,101.25
2018-07-06T07:52:27.851Z,95.625
2018-07-06T07:53:34.246Z,101.25
2018-07-06T07:54:39.707Z,101.25
2018-07-06T07:55:45.068Z,90
2018-07-06T07:56:50.473Z,73.125
2018-07-06T07:57:55.883Z,56.25
2018-07-06T07:59:01.292Z,39.375
2018-07-06T08:00:07.703Z,45
2018-07-06T08:01:13.138Z,45
2018-07-06T08:02:18.507Z,56.25
2018-07-06T08:03:23.914Z,61.875
2018-07-06T08:04:29.315Z,61.875
2018-07-06T08:05:35.724Z,78.75
2018-07-06T08:06:41.178Z,84.375
2018-07-06T08:07:46.528Z,84.375
2018-07-06T08:08:51.938Z,78.75
2018-07-06T08:09:58.342Z,95.625
2018-07-06T08:11:03.751Z,118.125
2018-07-06T08:12:09.168Z,106.875
2018-07-06T08:13:14.578Z,90
2018-07-06T08:14:20.031Z,67.5
2018-07-06T08:15:25.403Z,67.5
2018-07-06T08:16:30.805Z,56.25
2018-07-06T08:17:36.216Z,56.25
2018-07-06T08:18:41.646Z,73.125
2018-07-06T08:19:47.070Z,101.25
2018-07-06T08:20:53.472Z,118.125
2018-07-06T08:21:58.878Z,123.75
2018-07-06T08:23:04.277Z,106.875
2018-07-06T08:24:09.681Z,95.625
2018-07-06T08:25:15.094Z,95.625
2018-07-06T08:26:20.502Z,90
2018-07-06T08:27:25.906Z,112.5
2018-07-06T08:28:31.310Z,95.625
2018-07-06T08:29:36.730Z,90
2018-07-06T08:30:42.142Z,73.125
2018-07-06T08:31:47.550Z,73.125
2018-07-06T08:32:52.956Z,67.5
2018-07-06T08:33:58.364Z,61.875
2018-07-06T08:35:03.780Z,61.875
2018-07-06T08:36:10.181Z,45
2018-07-06T08:37:15.589Z,39.375
2018-07-06T08:38:20.996Z,39.375
2018-07-06T08:39:26.412Z,39.375
2018-07-06T08:40:31.831Z,45
2018-07-06T08:41:37.236Z,45
2018-07-06T08:42:42.639Z,45
2018-07-06T08:43:48.044Z,45
2018-07-06T08:44:53.511Z,45
2018-07-06T08:45:58.874Z,50.625
2018-07-06T08:47:04.277Z,45
2018-07-06T08:48:09.691Z,45
2018-07-06T08:49:15.098Z,45
2018-07-06T08:50:20.590Z,50.625
2018-07-06T08:51:25.933Z,56.25
2018-07-06T08:52:31.336Z,56.25
2018-07-06T08:53:36.745Z,56.25
2018-07-06T08:54:42.159Z,56.25
2018-07-06T08:55:47.573Z,67.5
2018-07-06T08:56:52.981Z,73.125
2018-07-06T08:57:58.392Z,61.875
2018-07-06T08:59:03.817Z,78.75
2018-07-06T09:00:09.222Z,78.75
2018-07-06T09:01:15.618Z,56.25
2018-07-06T09:02:21.021Z,45
2018-07-06T09:03:26.431Z,39.375
2018-07-06T09:04:32.900Z,39.375
2018-07-06T09:05:38.255Z,45
2018-07-06T09:06:43.661Z,39.375
2018-07-06T09:07:49.069Z,39.375
2018-07-06T09:08:54.469Z,50.625
2018-07-06T09:09:59.875Z,61.875
2018-07-06T09:11:05.297Z,61.875
2018-07-06T09:12:11.443Z,84.375
2018-07-06T09:13:16.849Z,78.75
2018-07-06T09:14:22.254Z,67.5
2018-07-06T09:15:27.662Z,61.875
2018-07-06T09:16:34.073Z,67.5
2018-07-06T09:17:39.480Z,56.25
2018-07-06T09:18:44.885Z,45
2018-07-06T09:19:51.472Z,50.625
2018-07-06T09:20:56.700Z,56.25
2018-07-06T09:22:02.109Z,50.625
2018-07-06T09:23:07.521Z,50.625
2018-07-06T09:24:12.983Z,45
2018-07-06T09:25:18.397Z,45
2018-07-06T09:26:23.761Z,45
2018-07-06T09:27:29.160Z,45
2018-07-06T09:28:34.565Z,39.375
2018-07-06T09:29:39.967Z,45
2018-07-06T09:30:45.373Z,45
2018-07-06T09:31:50.788Z,50.625
2018-07-06T09:32:56.206Z,50.625
2018-07-06T09:34:01.607Z,45
2018-07-06T09:35:07.009Z,45
2018-07-06T09:36:12.426Z,45
2018-07-06T09:37:17.832Z,45
2018-07-06T09:38:23.452Z,45
2018-07-06T09:39:28.645Z,45
2018-07-06T09:40:34.049Z,45
2018-07-06T09:41:39.466Z,45
2018-07-06T09:42:44.869Z,45
2018-07-06T09:43:50.281Z,45
2018-07-06T09:44:55.690Z,45
2018-07-06T09:46:01.093Z,45
2018-07-06T09:47:06.517Z,45
2018-07-06T09:48:11.920Z,45
2018-07-06T09:49:17.322Z,45
2018-07-06T09:50:22.744Z,45
2018-07-06T09:51:28.172Z,50.625
2018-07-06T09:52:33.582Z,45
2018-07-06T09:53:38.989Z,45
2018-07-06T09:54:44.391Z,45
2018-07-06T09:55:49.798Z,50.625
2018-07-06T09:56:55.211Z,67.5
2018-07-06T09:58:00.636Z,56.25
2018-07-06T09:59:06.021Z,50.625
2018-07-06T10:00:11.426Z,56.25
2018-07-06T10:01:16.841Z,56.25
2018-07-06T10:02:22.261Z,45
2018-07-06T10:03:27.662Z,45
2018-07-06T10:04:33.073Z,45
2018-07-06T10:05:38.540Z,56.25
2018-07-06T10:06:43.922Z,56.25
2018-07-06T10:07:49.328Z,50.625
2018-07-06T10:08:54.733Z,50.625
2018-07-06T10:10:00.136Z,39.375
2018-07-06T10:11:05.604Z,45
2018-07-06T10:12:10.964Z,45
2018-07-06T10:13:16.373Z,45
2018-07-06T10:14:21.780Z,45
2018-07-06T10:15:27.929Z,45
2018-07-06T10:16:33.330Z,45
2018-07-06T10:17:38.750Z,45
2018-07-06T10:18:44.156Z,45
2018-07-06T10:19:49.612Z,45
2018-07-06T10:20:54.968Z,45
2018-07-06T10:22:00.534Z,50.625
2018-07-06T10:23:05.784Z,50.625
2018-07-06T10:24:11.195Z,50.625
2018-07-06T10:25:16.631Z,50.625
2018-07-06T10:26:22.026Z,50.625
2018-07-06T10:27:27.549Z,50.625
2018-07-06T10:28:32.858Z,50.625
2018-07-06T10:29:38.262Z,50.625
2018-07-06T10:30:43.671Z,50.625
2018-07-06T10:31:49.075Z,56.25
2018-07-06T10:32:54.505Z,56.25
2018-07-06T10:33:59.963Z,56.25
2018-07-06T10:35:05.297Z,50.625
2018-07-06T10:36:10.702Z,56.25
2018-07-06T10:37:16.117Z,50.625
2018-07-06T10:38:21.517Z,50.625
2018-07-06T10:39:26.952Z,50.625
2018-07-06T10:40:32.334Z,50.625
2018-07-06T10:41:37.742Z,50.625
2018-07-06T10:42:43.158Z,50.625
2018-07-06T10:43:48.561Z,50.625
2018-07-06T10:44:53.967Z,56.25
2018-07-06T10:45:59.371Z,56.25
2018-07-06T10:47:04.769Z,56.25
2018-07-06T10:48:10.188Z,50.625
2018-07-06T10:49:15.593Z,56.25
2018-07-06T10:50:20.999Z,56.25
2018-07-06T10:51:26.408Z,56.25
2018-07-06T10:52:31.824Z,56.25
2018-07-06T10:53:37.225Z,56.25
2018-07-06T10:54:42.632Z,56.25
2018-07-06T10:55:48.042Z,56.25
2018-07-06T10:56:53.460Z,56.25
2018-07-06T10:57:59.856Z,61.875
2018-07-06T10:59:05.265Z,73.125
2018-07-06T11:00:10.669Z,78.75
2018-07-06T11:01:16.094Z,73.125
2018-07-06T11:02:21.494Z,61.875
2018-07-06T11:03:26.929Z,61.875
2018-07-06T11:04:32.336Z,56.25
2018-07-06T11:05:37.739Z,61.875
2018-07-06T11:06:43.152Z,56.25
2018-07-06T11:07:48.563Z,56.25
2018-07-06T11:08:53.991Z,56.25
2018-07-06T11:09:59.367Z,56.25
2018-07-06T11:11:04.774Z,61.875
2018-07-06T11:12:10.181Z,73.125
2018-07-06T11:13:15.597Z,56.25
2018-07-06T11:14:21.002Z,56.25
2018-07-06T11:15:26.407Z,56.25
2018-07-06T11:16:31.816Z,56.25
2018-07-06T11:17:37.243Z,56.25
2018-07-06T11:18:42.649Z,56.25
2018-07-06T11:19:48.055Z,56.25
2018-07-06T11:20:54.452Z,56.25
2018-07-06T11:21:59.856Z,56.25
2018-07-06T11:23:06.266Z,56.25
2018-07-06T11:24:11.675Z,56.25
2018-07-06T11:25:17.138Z,56.25
2018-07-06T11:26:22.490Z,56.25
2018-07-06T11:27:27.906Z,61.875
2018-07-06T11:28:33.314Z,67.5
2018-07-06T11:29:38.717Z,73.125
2018-07-06T11:30:44.124Z,95.625
2018-07-06T11:31:49.538Z,106.875
2018-07-06T11:32:54.965Z,78.75
2018-07-06T11:34:00.381Z,50.625
2018-07-06T11:35:05.787Z,61.875
2018-07-06T11:36:11.192Z,61.875
2018-07-06T11:37:16.594Z,61.875
2018-07-06T11:38:22.008Z,61.875
2018-07-06T11:39:27.421Z,61.875
2018-07-06T11:40:32.826Z,61.875
2018-07-06T11:41:38.231Z,61.875
2018-07-06T11:42:43.634Z,67.5
2018-07-06T11:43:49.045Z,73.125
2018-07-06T11:44:54.531Z,61.875
2018-07-06T11:45:59.880Z,61.875
2018-07-06T11:47:05.286Z,61.875
2018-07-06T11:48:10.692Z,61.875
2018-07-06T11:49:16.105Z,61.875
2018-07-06T11:50:21.524Z,61.875
2018-07-06T11:51:26.918Z,67.5
2018-07-06T11:52:32.324Z,67.5
2018-07-06T11:53:37.779Z,61.875
2018-07-06T11:54:43.183Z,67.5
2018-07-06T11:55:48.596Z,67.5
2018-07-06T11:56:55.009Z,90
2018-07-06T11:58:00.426Z,78.75
2018-07-06T11:59:05.841Z,67.5
2018-07-06T12:00:11.257Z,84.375
2018-07-06T12:01:16.655Z,67.5
2018-07-06T12:02:22.064Z,50.625
2018-07-06T12:03:27.469Z,61.875
2018-07-06T12:04:32.980Z,61.875
2018-07-06T12:05:38.285Z,61.875
2018-07-06T12:06:43.689Z,61.875
2018-07-06T12:07:49.098Z,61.875
2018-07-06T12:08:54.512Z,61.875
2018-07-06T12:09:59.928Z,61.875
2018-07-06T12:11:05.337Z,67.5
2018-07-06T12:12:10.739Z,67.5
2018-07-06T12:13:16.151Z,90
2018-07-06T12:14:21.565Z,112.5
2018-07-06T12:15:26.999Z,73.125
2018-07-06T12:16:32.380Z,73.125
2018-07-06T12:17:37.785Z,61.875
2018-07-06T12:18:43.191Z,67.5
2018-07-06T12:19:48.607Z,67.5
2018-07-06T12:20:54.047Z,67.5
2018-07-06T12:21:59.419Z,67.5
2018-07-06T12:23:04.841Z,67.5
2018-07-06T12:24:10.255Z,67.5
2018-07-06T12:25:15.657Z,67.5
2018-07-06T12:26:21.063Z,73.125
2018-07-06T12:27:26.471Z,67.5
2018-07-06T12:28:31.876Z,67.5
2018-07-06T12:29:37.293Z,73.125
2018-07-06T12:30:42.703Z,67.5
2018-07-06T12:31:48.104Z,67.5
2018-07-06T12:32:53.508Z,73.125
2018-07-06T12:33:58.912Z,73.125
2018-07-06T12:35:04.341Z,73.125
2018-07-06T12:36:09.791Z,73.125
2018-07-06T12:37:15.153Z,67.5
2018-07-06T12:38:20.552Z,73.125
2018-07-06T12:39:25.970Z,73.125
2018-07-06T12:40:31.377Z,73.125
2018-07-06T12:41:36.784Z,73.125
2018-07-06T12:42:42.183Z,78.75
2018-07-06T12:43:47.582Z,73.125
2018-07-06T12:44:53.009Z,78.75
2018-07-06T12:45:58.415Z,78.75
2018-07-06T12:47:03.830Z,84.375
2018-07-06T12:48:09.253Z,84.375
2018-07-06T12:49:14.658Z,84.375
2018-07-06T12:50:20.072Z,78.75
2018-07-06T12:51:25.473Z,78.75
2018-07-06T12:52:30.876Z,78.75
2018-07-06T12:53:36.289Z,78.75
2018-07-06T12:54:41.688Z,84.375
2018-07-06T12:55:47.137Z,84.375
2018-07-06T12:56:52.540Z,90
2018-07-06T12:57:57.945Z,84.375
2018-07-06T12:59:03.349Z,84.375
2018-07-06T13:00:08.789Z,84.375
2018-07-06T13:01:14.197Z,90
2018-07-06T13:02:19.608Z,95.625
2018-07-06T13:03:25.024Z,95.625
2018-07-06T13:04:30.427Z,95.625
2018-07-06T13:05:35.840Z,101.25
2018-07-06T13:06:41.240Z,101.25
2018-07-06T13:07:46.661Z,106.875
2018-07-06T13:08:52.072Z,101.25
2018-07-06T13:09:57.496Z,95.625
2018-07-06T13:11:02.912Z,95.625
2018-07-06T13:12:08.329Z,101.25
2018-07-06T13:13:13.741Z,90
2018-07-06T13:14:19.146Z,90
2018-07-06T13:15:24.552Z,84.375
2018-07-06T13:16:30.956Z,90
2018-07-06T13:17:36.363Z,90
2018-07-06T13:18:41.773Z,90
2018-07-06T13:19:47.184Z,90
2018-07-06T13:20:52.626Z,90
2018-07-06T13:21:58.008Z,90
2018-07-06T13:23:03.407Z,95.625
2018-07-06T13:24:08.829Z,95.625
2018-07-06T13:25:14.234Z,101.25
2018-07-06T13:26:19.655Z,106.875
2018-07-06T13:27:25.064Z,101.25
2018-07-06T13:28:30.466Z,101.25
2018-07-06T13:29:35.870Z,101.25
2018-07-06T13:30:41.280Z,101.25
2018-07-06T13:31:46.691Z,95.625
2018-07-06T13:32:52.095Z,90
2018-07-06T13:33:57.553Z,95.625
2018-07-06T13:35:02.919Z,90
2018-07-06T13:36:08.348Z,90
2018-07-06T13:37:13.758Z,90
2018-07-06T13:38:19.175Z,90
2018-07-06T13:39:25.570Z,90
2018-07-06T13:40:30.976Z,90
2018-07-06T13:41:36.397Z,101.25
2018-07-06T13:42:41.791Z,112.5
2018-07-06T13:43:47.196Z,118.125
2018-07-06T13:44:52.619Z,112.5
2018-07-06T13:45:58.028Z,101.25
2018-07-06T13:47:03.451Z,90
2018-07-06T13:48:08.863Z,84.375
2018-07-06T13:49:14.275Z,84.375
2018-07-06T13:50:19.678Z,95.625
2018-07-06T13:51:26.083Z,95.625
2018-07-06T13:52:31.507Z,101.25
2018-07-06T13:53:36.935Z,101.25
2018-07-06T13:54:42.344Z,118.125
2018-07-06T13:55:47.748Z,129.375
2018-07-06T13:56:53.166Z,101.25
2018-07-06T13:57:58.569Z,95.625
2018-07-06T13:59:04.021Z,95.625
2018-07-06T14:00:09.385Z,90
2018-07-06T14:01:14.794Z,90
2018-07-06T14:02:20.214Z,95.625
2018-07-06T14:03:25.624Z,95.625
2018-07-06T14:04:31.031Z,95.625
2018-07-06T14:05:37.440Z,95.625
2018-07-06T14:06:42.844Z,101.25
2018-07-06T14:07:48.255Z,101.25
2018-07-06T14:08:53.664Z,106.875
2018-07-06T14:09:59.073Z,112.5
2018-07-06T14:11:04.479Z,112.5
2018-07-06T14:12:09.926Z,112.5
2018-07-06T14:13:15.316Z,106.875
2018-07-06T14:14:20.724Z,112.5
2018-07-06T14:15:26.141Z,112.5
2018-07-06T14:16:31.541Z,112.5
2018-07-06T14:17:36.955Z,112.5
2018-07-06T14:18:42.360Z,123.75
2018-07-06T14:19:47.766Z,135
2018-07-06T14:20:53.166Z,163.125
2018-07-06T14:21:58.582Z,185.625
2018-07-06T14:23:03.991Z,157.5
2018-07-06T14:24:09.395Z,129.375
2018-07-06T14:25:14.817Z,140.625
2018-07-06T14:26:20.223Z,151.875
2018-07-06T14:27:25.635Z,157.5
2018-07-06T14:28:31.041Z,163.125
2018-07-06T14:29:36.449Z,180
2018-07-06T14:30:41.853Z,157.5
2018-07-06T14:31:47.254Z,168.75
2018-07-06T14:32:52.678Z,185.625
2018-07-06T14:33:58.090Z,168.75
2018-07-06T14:35:03.500Z,168.75
2018-07-06T14:36:08.906Z,174.375
2018-07-06T14:37:14.352Z,168.75
2018-07-06T14:38:19.762Z,163.125